createdAt,value
2018-04-08T00:00:14.165Z,16.07
2018-04-08T00:02:41.560Z,16.00
2018-04-08T00:05:08.943Z,16.02
2018-04-08T00:07:36.325Z,16.06
2018-04-08T00:10:03.716Z,16.04
2018-04-08T00:12:31.096Z,16.09
2018-04-08T00:14:58.488Z,16.01
2018-04-08T00:17:25.871Z,16.05
2018-04-08T00:19:53.256Z,16.05
2018-04-08T00:22:20.644Z,16.04
2018-04-08T00:24:48.036Z,16.04
2018-04-08T00:27:15.415Z,16.05
2018-04-08T00:29:42.860Z,16.03
2018-04-08T00:32:10.244Z,15.98
2018-04-08T00:34:37.632Z,16.01
2018-04-08T00:37:05.077Z,15.99
2018-04-08T00:39:32.464Z,15.99
2018-04-08T00:41:59.876Z,15.95
2018-04-08T00:44:27.261Z,15.90
2018-04-08T00:46:54.632Z,15.79
2018-04-08T00:49:22.108Z,15.75
2018-04-08T00:51:49.496Z,15.82
2018-04-08T00:54:28.784Z,15.75
2018-04-08T00:56:56.169Z,15.71
2018-04-08T00:59:23.557Z,15.71
2018-04-08T01:01:51.674Z,15.65
2018-04-08T01:04:19.067Z,15.58
2018-04-08T01:06:46.459Z,15.56
2018-04-08T01:09:13.976Z,15.56
2018-04-08T01:11:41.360Z,15.50
2018-04-08T01:14:08.749Z,15.52
2018-04-08T01:16:36.136Z,15.53
2018-04-08T01:19:03.520Z,15.54
2018-04-08T01:21:30.916Z,15.51
2018-04-08T01:23:58.296Z,15.56
2018-04-08T01:26:25.695Z,15.54
2018-04-08T01:28:53.077Z,15.59
2018-04-08T01:31:20.468Z,15.54
2018-04-08T01:33:47.843Z,15.54
2018-04-08T01:36:15.234Z,15.50
2018-04-08T01:38:42.628Z,15.42
2018-04-08T01:41:10.005Z,15.38
2018-04-08T01:43:37.408Z,15.39
2018-04-08T01:46:04.785Z,15.36
2018-04-08T01:48:32.180Z,15.41
2018-04-08T01:50:59.561Z,15.35
2018-04-08T01:53:26.952Z,15.33
2018-04-08T01:55:54.336Z,15.25
2018-04-08T01:58:21.725Z,15.19
2018-04-08T02:00:49.104Z,15.13
2018-04-08T02:03:16.601Z,15.08
2018-04-08T02:05:43.991Z,14.97
2018-04-08T02:08:11.372Z,14.90
2018-04-08T02:10:38.764Z,14.87
2018-04-08T02:13:06.140Z,14.82
2018-04-08T02:15:33.528Z,14.73
2018-04-08T02:18:00.920Z,14.68
2018-04-08T02:20:28.329Z,14.66
2018-04-08T02:22:55.708Z,14.62
2018-04-08T02:25:23.100Z,14.63
2018-04-08T02:27:50.488Z,14.69
2018-04-08T02:30:17.874Z,14.69
2018-04-08T02:32:45.264Z,14.75
2018-04-08T02:35:12.648Z,14.84
2018-04-08T02:37:40.038Z,14.89
2018-04-08T02:40:07.432Z,14.86
2018-04-08T02:42:34.812Z,14.89
2018-04-08T02:45:02.205Z,14.89
2018-04-08T02:47:29.594Z,14.91
2018-04-08T02:49:56.981Z,14.96
2018-04-08T02:52:24.369Z,15.00
2018-04-08T02:54:51.751Z,15.08
2018-04-08T02:57:19.136Z,15.09
2018-04-08T02:59:46.524Z,15.10
2018-04-08T03:02:13.945Z,15.14
2018-04-08T03:04:41.346Z,15.22
2018-04-08T03:07:08.720Z,15.25
2018-04-08T03:09:36.106Z,15.26
2018-04-08T03:12:03.489Z,15.24
2018-04-08T03:14:31.016Z,15.26
2018-04-08T03:16:58.401Z,15.26
2018-04-08T03:19:25.861Z,15.28
2018-04-08T03:21:53.252Z,15.28
2018-04-08T03:24:20.636Z,15.23
2018-04-08T03:26:48.040Z,15.25
2018-04-08T03:29:15.419Z,15.34
2018-04-08T03:31:43.168Z,15.43
2018-04-08T03:34:10.548Z,15.59
2018-04-08T03:36:37.936Z,15.59
2018-04-08T03:39:06.221Z,15.66
2018-04-08T03:41:33.611Z,15.65
2018-04-08T03:44:00.999Z,15.69
2018-04-08T03:46:28.388Z,15.70
2018-04-08T03:48:56.112Z,15.70
2018-04-08T03:51:23.491Z,15.68
2018-04-08T03:53:50.884Z,15.63
2018-04-08T03:56:18.268Z,15.61
2018-04-08T03:58:45.656Z,15.56
2018-04-08T04:01:13.036Z,15.48
2018-04-08T04:03:40.421Z,15.50
2018-04-08T04:06:07.805Z,15.48
2018-04-08T04:08:35.196Z,15.44
2018-04-08T04:11:02.592Z,15.45
2018-04-08T04:13:29.976Z,15.45
2018-04-08T04:15:57.360Z,15.42
2018-04-08T04:18:36.560Z,15.35
2018-04-08T04:21:15.841Z,15.31
2018-04-08T04:23:55.011Z,15.33
2018-04-08T04:26:31.148Z,15.32
2018-04-08T04:28:58.536Z,15.26
2018-04-08T04:31:25.927Z,15.14
2018-04-08T04:33:53.308Z,15.05
2018-04-08T04:36:20.700Z,14.97
2018-04-08T04:38:48.081Z,14.84
2018-04-08T04:41:15.479Z,14.73
2018-04-08T04:43:42.856Z,14.68
2018-04-08T04:46:10.248Z,14.66
2018-04-08T04:48:37.637Z,14.68
2018-04-08T04:51:05.023Z,14.77
2018-04-08T04:53:32.537Z,14.80
2018-04-08T04:55:59.920Z,14.78
2018-04-08T04:58:27.312Z,14.84
2018-04-08T05:00:54.773Z,14.84
2018-04-08T05:03:22.164Z,14.83
2018-04-08T05:05:49.549Z,14.86
2018-04-08T05:08:16.996Z,14.89
2018-04-08T05:10:44.448Z,14.88
2018-04-08T05:13:11.832Z,14.93
2018-04-08T05:15:39.212Z,14.97
2018-04-08T05:18:06.601Z,15.03
2018-04-08T05:20:39.702Z,15.04
2018-04-08T05:23:07.090Z,15.02
2018-04-08T05:25:34.482Z,15.02
2018-04-08T05:28:01.865Z,15.05
2018-04-08T05:30:29.261Z,15.08
2018-04-08T05:32:56.646Z,15.08
2018-04-08T05:35:24.041Z,15.07
2018-04-08T05:37:51.429Z,15.08
2018-04-08T05:40:18.854Z,15.11
2018-04-08T05:42:46.305Z,15.03
2018-04-08T05:45:13.755Z,15.03
2018-04-08T05:47:41.152Z,15.05
2018-04-08T05:50:08.536Z,15.10
2018-04-08T05:52:35.944Z,15.07
2018-04-08T05:55:03.320Z,15.08
2018-04-08T05:57:30.704Z,15.13
2018-04-08T05:59:58.108Z,15.17
2018-04-08T06:02:25.504Z,15.19
2018-04-08T06:04:52.884Z,15.25
2018-04-08T06:07:20.276Z,15.27
2018-04-08T06:09:47.685Z,15.31
2018-04-08T06:12:15.112Z,15.38
2018-04-08T06:14:42.497Z,15.43
2018-04-08T06:17:09.912Z,15.50
2018-04-08T06:19:37.301Z,15.52
2018-04-08T06:22:04.689Z,15.60
2018-04-08T06:24:32.081Z,15.73
2018-04-08T06:26:59.461Z,15.79
2018-04-08T06:29:26.906Z,15.85
2018-04-08T06:31:54.292Z,15.87
2018-04-08T06:34:21.700Z,16.01
2018-04-08T06:36:49.088Z,16.10
2018-04-08T06:39:16.473Z,16.16
2018-04-08T06:41:43.861Z,16.26
2018-04-08T06:44:11.240Z,16.39
2018-04-08T06:46:38.650Z,16.54
2018-04-08T06:49:06.032Z,16.76
2018-04-08T06:51:33.422Z,16.92
2018-04-08T06:54:00.811Z,17.01
2018-04-08T06:56:28.272Z,17.18
2018-04-08T06:58:55.649Z,17.32
2018-04-08T07:01:23.079Z,17.48
2018-04-08T07:03:50.452Z,17.65
2018-04-08T07:06:17.836Z,17.76
2018-04-08T07:08:45.227Z,17.83
2018-04-08T07:11:12.612Z,17.83
2018-04-08T07:13:40.001Z,17.92
2018-04-08T07:16:07.466Z,18.11
2018-04-08T07:18:34.878Z,18.25
2018-04-08T07:21:02.237Z,18.45
2018-04-08T07:23:29.665Z,18.57
2018-04-08T07:25:57.012Z,18.74
2018-04-08T07:28:24.410Z,18.82
2018-04-08T07:30:51.793Z,18.88
2018-04-08T07:33:19.173Z,18.97
2018-04-08T07:35:46.573Z,19.06
2018-04-08T07:38:13.949Z,19.13
2018-04-08T07:40:41.351Z,19.19
2018-04-08T07:43:08.735Z,19.21
2018-04-08T07:45:36.124Z,19.25
2018-04-08T07:48:03.511Z,19.35
2018-04-08T07:50:30.909Z,19.43
2018-04-08T07:52:58.288Z,19.47
2018-04-08T07:55:25.668Z,19.37
2018-04-08T07:57:53.061Z,19.44
2018-04-08T08:00:20.456Z,19.49
2018-04-08T08:02:47.840Z,19.47
2018-04-08T08:05:15.228Z,19.52
2018-04-08T08:07:42.616Z,19.41
2018-04-08T08:10:09.997Z,19.31
2018-04-08T08:12:37.392Z,19.42
2018-04-08T08:15:04.776Z,19.45
2018-04-08T08:17:32.164Z,19.50
2018-04-08T08:19:59.552Z,19.40
2018-04-08T08:22:26.956Z,19.47
2018-04-08T08:24:54.349Z,19.60
2018-04-08T08:27:21.732Z,19.60
2018-04-08T08:29:49.130Z,19.65
2018-04-08T08:32:16.540Z,19.70
2018-04-08T08:34:44.034Z,19.78
2018-04-08T08:37:11.440Z,19.81
2018-04-08T08:39:39.129Z,20.00
2018-04-08T08:42:06.516Z,20.09
2018-04-08T08:44:33.896Z,20.20
2018-04-08T08:47:01.311Z,20.26
2018-04-08T08:49:28.688Z,20.31
2018-04-08T08:51:56.080Z,20.34
2018-04-08T08:54:23.476Z,20.32
2018-04-08T08:56:50.862Z,20.51
2018-04-08T08:59:18.252Z,20.56
2018-04-08T09:01:45.642Z,20.65
2018-04-08T09:04:13.034Z,20.79
2018-04-08T09:06:40.494Z,20.87
2018-04-08T09:09:07.974Z,21.02
2018-04-08T09:11:35.347Z,21.12
2018-04-08T09:14:02.744Z,21.25
2018-04-08T09:16:30.122Z,21.20
2018-04-08T09:19:00.013Z,21.18
2018-04-08T09:21:32.919Z,21.09
2018-04-08T09:24:02.825Z,20.94
2018-04-08T09:26:30.220Z,20.94
2018-04-08T09:28:57.617Z,20.89
2018-04-08T09:31:24.989Z,20.87
2018-04-08T09:33:52.406Z,20.87
2018-04-08T09:36:19.868Z,20.85
2018-04-08T09:38:47.216Z,20.98
2018-04-08T09:41:14.848Z,21.07
2018-04-08T09:43:42.269Z,21.17
2018-04-08T09:46:10.933Z,21.31
2018-04-08T09:48:38.354Z,21.69
2018-04-08T09:51:05.785Z,22.24
2018-04-08T09:53:33.169Z,22.55
2018-04-08T09:56:00.833Z,22.74
2018-04-08T09:58:38.923Z,22.84
2018-04-08T10:01:26.969Z,22.89
2018-04-08T10:03:54.348Z,22.81
2018-04-08T10:06:21.749Z,22.99
2018-04-08T10:08:49.141Z,23.53
2018-04-08T10:11:16.922Z,24.07
2018-04-08T10:13:44.309Z,24.54
2018-04-08T10:16:11.696Z,24.65
2018-04-08T10:18:39.092Z,24.54
2018-04-08T10:21:06.484Z,24.57
2018-04-08T10:23:33.880Z,24.74
2018-04-08T10:26:01.280Z,24.86
2018-04-08T10:28:28.714Z,24.81
2018-04-08T10:30:56.136Z,25.10
2018-04-08T10:33:23.847Z,25.57
2018-04-08T10:35:51.221Z,25.97
2018-04-08T10:38:18.676Z,26.61
2018-04-08T10:40:46.040Z,27.24
2018-04-08T10:43:13.503Z,27.76
2018-04-08T10:45:40.892Z,27.76
2018-04-08T10:48:08.297Z,28.19
2018-04-08T10:50:38.443Z,27.72
2018-04-08T10:53:05.829Z,28.02
2018-04-08T10:55:33.241Z,28.21
2018-04-08T10:58:00.623Z,28.30
2018-04-08T11:00:28.012Z,28.40
2018-04-08T11:02:55.453Z,28.65
2018-04-08T11:05:22.856Z,29.11
2018-04-08T11:07:50.253Z,29.34
2018-04-08T11:10:17.649Z,29.86
2018-04-08T11:12:45.049Z,30.09
2018-04-08T11:15:12.438Z,30.37
2018-04-08T11:17:39.824Z,30.48
2018-04-08T11:20:07.204Z,30.34
2018-04-08T11:22:34.619Z,30.57
2018-04-08T11:25:01.981Z,30.55
2018-04-08T11:27:29.388Z,30.43
2018-04-08T11:29:56.756Z,30.47
2018-04-08T11:32:24.140Z,30.11
2018-04-08T11:34:51.528Z,30.14
2018-04-08T11:37:18.917Z,30.41
2018-04-08T11:39:46.309Z,30.62
2018-04-08T11:42:13.688Z,30.83
2018-04-08T11:44:41.073Z,31.00
2018-04-08T11:47:08.465Z,31.20
2018-04-08T11:49:35.840Z,31.08
2018-04-08T11:52:03.251Z,31.00
2018-04-08T11:54:30.669Z,30.31
2018-04-08T11:56:58.061Z,29.87
2018-04-08T11:59:25.448Z,29.22
2018-04-08T12:01:52.833Z,29.26
2018-04-08T12:04:20.216Z,29.12
2018-04-08T12:06:47.604Z,29.21
2018-04-08T12:09:14.997Z,29.26
2018-04-08T12:11:42.380Z,29.19
2018-04-08T12:14:09.776Z,29.48
2018-04-08T12:16:37.165Z,29.78
2018-04-08T12:19:04.544Z,29.97
2018-04-08T12:21:31.935Z,29.78
2018-04-08T12:23:59.323Z,29.56
2018-04-08T12:26:29.525Z,29.64
2018-04-08T12:28:56.900Z,29.36
2018-04-08T12:31:24.331Z,29.34
2018-04-08T12:33:51.677Z,29.24
2018-04-08T12:36:19.061Z,28.88
2018-04-08T12:38:46.456Z,29.10
2018-04-08T12:41:13.837Z,29.23
2018-04-08T12:43:41.233Z,29.20
2018-04-08T12:46:08.835Z,29.16
2018-04-08T12:48:36.217Z,28.94
2018-04-08T12:51:03.609Z,29.08
2018-04-08T12:53:30.996Z,29.09
2018-04-08T12:55:58.380Z,29.12
2018-04-08T12:58:25.761Z,29.15
2018-04-08T13:00:53.156Z,29.35
2018-04-08T13:03:20.540Z,29.45
2018-04-08T13:05:47.924Z,29.33
2018-04-08T13:08:15.317Z,29.33
2018-04-08T13:10:42.705Z,29.57
2018-04-08T13:13:10.092Z,29.41
2018-04-08T13:15:37.476Z,29.37
2018-04-08T13:18:04.868Z,29.37
2018-04-08T13:20:32.255Z,29.49
2018-04-08T13:22:59.640Z,29.40
2018-04-08T13:25:28.504Z,29.26
2018-04-08T13:27:55.888Z,29.25
2018-04-08T13:30:23.285Z,29.33
2018-04-08T13:32:50.668Z,29.44
2018-04-08T13:35:18.056Z,29.43
2018-04-08T13:37:45.440Z,29.27
2018-04-08T13:40:12.825Z,29.38
2018-04-08T13:42:40.228Z,29.63
2018-04-08T13:45:07.613Z,29.85
2018-04-08T13:47:35.025Z,29.44
2018-04-08T13:50:02.412Z,29.63
2018-04-08T13:52:29.800Z,29.38
2018-04-08T13:54:57.194Z,29.31
2018-04-08T13:57:24.581Z,29.23
2018-04-08T13:59:52.384Z,28.85
2018-04-08T14:02:19.770Z,28.76
2018-04-08T14:04:47.300Z,28.77
2018-04-08T14:07:14.693Z,28.60
2018-04-08T14:09:42.083Z,28.57
2018-04-08T14:12:09.501Z,28.58
2018-04-08T14:14:36.884Z,28.41
2018-04-08T14:17:04.268Z,28.63
2018-04-08T14:19:31.664Z,28.73
2018-04-08T14:21:59.048Z,28.69
2018-04-08T14:24:26.473Z,28.58
2018-04-08T14:26:53.852Z,28.54
2018-04-08T14:29:21.244Z,28.57
2018-04-08T14:31:48.636Z,28.60
2018-04-08T14:34:16.017Z,28.20
2018-04-08T14:36:43.416Z,28.29
2018-04-08T14:39:10.792Z,28.33
2018-04-08T14:41:38.175Z,28.30
2018-04-08T14:44:05.572Z,28.37
2018-04-08T14:46:33.010Z,28.25
2018-04-08T14:49:00.360Z,28.17
2018-04-08T14:51:27.745Z,28.15
2018-04-08T14:53:55.140Z,28.12
2018-04-08T14:56:22.673Z,28.05
2018-04-08T14:58:50.061Z,28.12
2018-04-08T15:01:17.454Z,28.16
2018-04-08T15:03:44.833Z,28.18
2018-04-08T15:06:12.224Z,28.14
2018-04-08T15:08:39.610Z,28.11
2018-04-08T15:11:06.992Z,28.13
2018-04-08T15:13:34.394Z,28.13
2018-04-08T15:16:01.769Z,28.04
2018-04-08T15:18:29.186Z,28.06
2018-04-08T15:20:56.566Z,28.01
2018-04-08T15:23:23.957Z,27.86
2018-04-08T15:25:51.345Z,27.72
2018-04-08T15:28:18.724Z,27.65
2018-04-08T15:30:46.132Z,27.60
2018-04-08T15:33:13.524Z,27.45
2018-04-08T15:35:40.908Z,27.40
2018-04-08T15:38:08.296Z,27.40
2018-04-08T15:40:35.679Z,27.27
2018-04-08T15:43:03.091Z,27.19
2018-04-08T15:45:30.476Z,27.10
2018-04-08T15:47:57.861Z,27.01
2018-04-08T15:50:25.576Z,26.99
2018-04-08T15:52:52.964Z,26.90
2018-04-08T15:55:20.363Z,26.92
2018-04-08T15:57:47.740Z,26.93
2018-04-08T16:00:15.132Z,26.90
2018-04-08T16:02:42.528Z,26.84
2018-04-08T16:05:09.915Z,26.74
2018-04-08T16:07:37.307Z,26.77
2018-04-08T16:10:04.692Z,26.76
2018-04-08T16:12:32.073Z,26.69
2018-04-08T16:14:59.471Z,26.66
2018-04-08T16:17:26.853Z,26.67
2018-04-08T16:19:54.309Z,26.67
2018-04-08T16:22:21.709Z,26.56
2018-04-08T16:24:49.086Z,26.54
2018-04-08T16:27:16.469Z,26.54
2018-04-08T16:29:43.852Z,26.56
2018-04-08T16:32:11.257Z,26.55
2018-04-08T16:34:38.646Z,26.48
2018-04-08T16:37:06.032Z,26.42
2018-04-08T16:39:33.435Z,26.40
2018-04-08T16:42:00.988Z,26.37
2018-04-08T16:44:28.383Z,26.42
2018-04-08T16:46:55.761Z,26.42
2018-04-08T16:49:23.155Z,26.41
2018-04-08T16:51:50.547Z,26.35
2018-04-08T16:54:17.925Z,26.28
2018-04-08T16:56:45.336Z,26.18
2018-04-08T16:59:12.772Z,26.07
2018-04-08T17:01:40.120Z,25.99
2018-04-08T17:04:07.507Z,25.93
2018-04-08T17:06:34.898Z,25.90
2018-04-08T17:09:02.305Z,25.78
2018-04-08T17:11:29.692Z,25.71
2018-04-08T17:13:57.121Z,25.62
2018-04-08T17:16:24.528Z,25.56
2018-04-08T17:18:51.918Z,25.46
2018-04-08T17:21:20.285Z,25.35
2018-04-08T17:23:47.672Z,25.27
2018-04-08T17:26:15.061Z,25.15
2018-04-08T17:28:42.968Z,25.08
2018-04-08T17:31:10.347Z,25.04
2018-04-08T17:33:38.005Z,24.95
2018-04-08T17:36:05.398Z,24.88
2018-04-08T17:38:32.914Z,24.69
2018-04-08T17:41:00.300Z,24.64
2018-04-08T17:43:27.777Z,24.58
2018-04-08T17:45:55.158Z,24.47
2018-04-08T17:48:22.544Z,24.36
2018-04-08T17:50:50.269Z,24.24
2018-04-08T17:53:17.657Z,24.11
2018-04-08T17:55:45.042Z,24.02
2018-04-08T17:58:12.453Z,23.94
2018-04-08T18:00:39.866Z,23.82
2018-04-08T18:03:07.245Z,23.72
2018-04-08T18:05:34.649Z,23.62
2018-04-08T18:08:02.198Z,23.53
2018-04-08T18:10:29.655Z,23.44
2018-04-08T18:12:57.039Z,23.35
2018-04-08T18:15:24.434Z,23.27
2018-04-08T18:17:51.819Z,23.08
2018-04-08T18:20:19.365Z,23.04
2018-04-08T18:22:46.756Z,22.95
2018-04-08T18:25:14.138Z,22.80
2018-04-08T18:27:41.541Z,22.66
2018-04-08T18:30:08.921Z,22.51
2018-04-08T18:32:36.471Z,22.37
2018-04-08T18:35:03.968Z,22.34
2018-04-08T18:37:31.386Z,22.27
2018-04-08T18:39:58.805Z,22.18
2018-04-08T18:42:26.204Z,22.07
2018-04-08T18:44:53.598Z,22.02
2018-04-08T18:47:21.005Z,21.98
2018-04-08T18:49:48.404Z,21.88
2018-04-08T18:52:15.784Z,21.82
2018-04-08T18:54:43.178Z,21.75
2018-04-08T18:57:10.564Z,21.70
2018-04-08T18:59:38.026Z,21.66
2018-04-08T19:02:05.411Z,21.63
2018-04-08T19:04:32.812Z,21.59
2018-04-08T19:07:00.202Z,21.49
2018-04-08T19:09:27.587Z,21.41
2018-04-08T19:11:55.326Z,21.32
2018-04-08T19:14:22.721Z,21.26
2018-04-08T19:16:50.116Z,21.23
2018-04-08T19:19:17.500Z,21.13
2018-04-08T19:21:44.893Z,21.00
2018-04-08T19:24:12.282Z,20.86
2018-04-08T19:26:39.660Z,20.81
2018-04-08T19:29:07.042Z,20.89
2018-04-08T19:31:34.428Z,20.90
2018-04-08T19:34:01.819Z,20.89
2018-04-08T19:36:29.211Z,20.83
2018-04-08T19:38:56.628Z,20.67
2018-04-08T19:41:24.048Z,20.50
2018-04-08T19:43:51.434Z,20.34
2018-04-08T19:46:18.821Z,20.21
2018-04-08T19:48:46.222Z,20.04
2018-04-08T19:51:13.977Z,20.02
2018-04-08T19:53:41.361Z,20.07
2018-04-08T19:56:08.817Z,20.09
2018-04-08T19:58:36.283Z,20.00
2018-04-08T20:01:03.641Z,19.91
2018-04-08T20:03:31.021Z,19.91
2018-04-08T20:05:58.406Z,19.88
2018-04-08T20:08:25.796Z,19.90
2018-04-08T20:10:53.181Z,19.93
2018-04-08T20:13:20.577Z,19.94
2018-04-08T20:15:47.957Z,19.95
2018-04-08T20:18:15.340Z,19.94
2018-04-08T20:20:42.732Z,19.95
2018-04-08T20:23:10.122Z,19.95
2018-04-08T20:25:37.512Z,19.97
2018-04-08T20:28:04.893Z,19.99
2018-04-08T20:30:32.280Z,19.96
2018-04-08T20:32:59.719Z,19.94
2018-04-08T20:35:27.060Z,19.97
2018-04-08T20:37:54.471Z,19.95
2018-04-08T20:40:21.910Z,19.86
2018-04-08T20:42:49.244Z,19.79
2018-04-08T20:45:16.635Z,19.75
2018-04-08T20:47:44.019Z,19.63
2018-04-08T20:50:11.411Z,19.49
2018-04-08T20:52:38.796Z,19.28
2018-04-08T20:55:06.185Z,19.07
2018-04-08T20:57:33.572Z,18.94
2018-04-08T21:00:00.952Z,18.83
2018-04-08T21:02:28.342Z,18.75
2018-04-08T21:04:55.724Z,18.68
2018-04-08T21:07:23.130Z,18.60
2018-04-08T21:09:50.523Z,18.63
2018-04-08T21:12:17.908Z,18.70
2018-04-08T21:14:45.300Z,18.73
2018-04-08T21:17:12.684Z,18.68
2018-04-08T21:19:40.077Z,18.61
2018-04-08T21:22:07.466Z,18.57
2018-04-08T21:24:34.886Z,18.53
2018-04-08T21:27:02.266Z,18.60
2018-04-08T21:29:29.662Z,18.66
2018-04-08T21:31:57.061Z,18.64
2018-04-08T21:34:24.444Z,18.68
2018-04-08T21:36:51.836Z,18.63
2018-04-08T21:39:19.240Z,18.63
2018-04-08T21:41:46.640Z,18.67
2018-04-08T21:44:14.029Z,18.76
2018-04-08T21:46:41.411Z,18.72
2018-04-08T21:49:08.795Z,18.72
2018-04-08T21:51:36.589Z,18.70
2018-04-08T21:54:03.968Z,18.65
2018-04-08T21:56:31.368Z,18.49
2018-04-08T21:58:58.752Z,18.34
2018-04-08T22:01:26.201Z,18.23
2018-04-08T22:03:53.592Z,18.09
2018-04-08T22:06:21.015Z,18.00
2018-04-08T22:08:48.384Z,17.91
2018-04-08T22:11:15.776Z,17.91
2018-04-08T22:13:43.157Z,17.88
2018-04-08T22:16:10.578Z,17.89
2018-04-08T22:18:37.956Z,17.93
2018-04-08T22:21:05.364Z,17.85
2018-04-08T22:23:32.769Z,17.83
2018-04-08T22:26:00.152Z,17.85
2018-04-08T22:28:27.553Z,17.92
2018-04-08T22:30:54.941Z,17.92
2018-04-08T22:33:22.341Z,17.93
2018-04-08T22:35:49.744Z,17.97
2018-04-08T22:38:17.128Z,17.97
2018-04-08T22:40:44.553Z,17.87
2018-04-08T22:43:11.941Z,17.81
2018-04-08T22:45:39.357Z,17.72
2018-04-08T22:48:06.791Z,17.63
2018-04-08T22:50:34.136Z,17.57
2018-04-08T22:53:01.529Z,17.49
2018-04-08T22:55:28.912Z,17.45
2018-04-08T22:57:56.304Z,17.45
2018-04-08T23:00:25.600Z,17.46
2018-04-08T23:02:52.980Z,17.39
2018-04-08T23:05:20.368Z,17.32
2018-04-08T23:07:47.764Z,17.28
2018-04-08T23:10:15.164Z,17.22
2018-04-08T23:12:42.556Z,17.19
2018-04-08T23:15:09.948Z,17.15
2018-04-08T23:17:37.533Z,17.07
2018-04-08T23:20:04.929Z,17.00
2018-04-08T23:22:32.330Z,16.97
2018-04-08T23:24:59.728Z,16.91
2018-04-08T23:27:27.125Z,16.88
2018-04-08T23:29:54.533Z,16.85
2018-04-08T23:32:21.916Z,16.85
2018-04-08T23:34:49.311Z,16.82
2018-04-08T23:37:16.701Z,16.85
2018-04-08T23:39:44.168Z,16.91
2018-04-08T23:42:11.560Z,16.86
2018-04-08T23:44:38.945Z,16.81
2018-04-08T23:47:06.344Z,16.75
2018-04-08T23:49:33.740Z,16.81
2018-04-08T23:52:01.130Z,16.94
2018-04-08T23:54:28.536Z,17.01
2018-04-08T23:56:55.926Z,17.07
2018-04-08T23:59:23.338Z,17.02
